sensor_id;sensor_type;location;lat;lon;timestamp;P1;durP1;ratioP1;P2;durP2;ratioP2
48317;SDS011;34127;47.412;9.730;2023-07-13T00:01:27;10.43;;;5.90;;
48317;SDS011;34127;47.412;9.730;2023-07-13T00:03:53;8.73;;;5.18;;
48317;SDS011;34127;47.412;9.730;2023-07-13T00:06:19;11.20;;;6.40;;
48317;SDS011;34127;47.412;9.730;2023-07-13T00:08:46;8.85;;;6.28;;
48317;SDS011;34127;47.412;9.730;2023-07-13T00:11:14;8.80;;;5.97;;
48317;SDS011;34127;47.412;9.730;2023-07-13T00:13:41;9.38;;;5.63;;
48317;SDS011;34127;47.412;9.730;2023-07-13T00:16:07;9.40;;;5.90;;
48317;SDS011;34127;47.412;9.730;2023-07-13T00:18:34;9.02;;;5.88;;
48317;SDS011;34127;47.412;9.730;2023-07-13T00:21:00;10.15;;;5.90;;
48317;SDS011;34127;47.412;9.730;2023-07-13T00:23:37;9.20;;;5.55;;
48317;SDS011;34127;47.412;9.730;2023-07-13T00:26:05;8.75;;;5.45;;
48317;SDS011;34127;47.412;9.730;2023-07-13T00:28:31;9.27;;;5.20;;
48317;SDS011;34127;47.412;9.730;2023-07-13T00:30:58;9.80;;;5.85;;
48317;SDS011;34127;47.412;9.730;2023-07-13T00:33:24;9.05;;;5.60;;
48317;SDS011;34127;47.412;9.730;2023-07-13T00:35:50;7.47;;;5.50;;
48317;SDS011;34127;47.412;9.730;2023-07-13T00:38:16;9.18;;;5.43;;
48317;SDS011;34127;47.412;9.730;2023-07-13T00:40:42;10.30;;;5.60;;
48317;SDS011;34127;47.412;9.730;2023-07-13T00:43:16;10.45;;;5.95;;
48317;SDS011;34127;47.412;9.730;2023-07-13T00:48:09;10.00;;;6.05;;
48317;SDS011;34127;47.412;9.730;2023-07-13T00:50:36;9.43;;;5.90;;
48317;SDS011;34127;47.412;9.730;2023-07-13T00:53:03;9.70;;;5.85;;
48317;SDS011;34127;47.412;9.730;2023-07-13T00:55:29;10.00;;;5.95;;
48317;SDS011;34127;47.412;9.730;2023-07-13T00:57:55;12.25;;;6.07;;
48317;SDS011;34127;47.412;9.730;2023-07-13T01:00:21;11.40;;;5.50;;
48317;SDS011;34127;47.412;9.730;2023-07-13T01:02:48;8.82;;;4.85;;
48317;SDS011;34127;47.412;9.730;2023-07-13T01:05:17;8.05;;;4.95;;
48317;SDS011;34127;47.412;9.730;2023-07-13T01:07:44;9.38;;;5.38;;
48317;SDS011;34127;47.412;9.730;2023-07-13T01:13:03;7.32;;;4.97;;
48317;SDS011;34127;47.412;9.730;2023-07-13T01:15:37;9.05;;;4.93;;
48317;SDS011;34127;47.412;9.730;2023-07-13T01:18:04;6.50;;;4.25;;
48317;SDS011;34127;47.412;9.730;2023-07-13T01:20:31;6.97;;;4.53;;
48317;SDS011;34127;47.412;9.730;2023-07-13T01:23:03;6.45;;;4.30;;
48317;SDS011;34127;47.412;9.730;2023-07-13T01:25:29;9.93;;;4.72;;
48317;SDS011;34127;47.412;9.730;2023-07-13T01:27:55;9.70;;;4.60;;
48317;SDS011;34127;47.412;9.730;2023-07-13T01:30:21;6.70;;;4.10;;
48317;SDS011;34127;47.412;9.730;2023-07-13T01:32:47;8.07;;;4.10;;
48317;SDS011;34127;47.412;9.730;2023-07-13T01:35:13;6.95;;;3.80;;
48317;SDS011;34127;47.412;9.730;2023-07-13T01:37:41;8.10;;;3.50;;
48317;SDS011;34127;47.412;9.730;2023-07-13T01:40:10;6.82;;;3.90;;
48317;SDS011;34127;47.412;9.730;2023-07-13T01:42:36;6.28;;;4.07;;
48317;SDS011;34127;47.412;9.730;2023-07-13T01:45:03;7.65;;;3.65;;
48317;SDS011;34127;47.412;9.730;2023-07-13T01:47:29;5.28;;;3.72;;
48317;SDS011;34127;47.412;9.730;2023-07-13T01:49:56;8.40;;;4.60;;
48317;SDS011;34127;47.412;9.730;2023-07-13T01:52:22;6.63;;;4.20;;
48317;SDS011;34127;47.412;9.730;2023-07-13T01:54:48;8.73;;;4.45;;
48317;SDS011;34127;47.412;9.730;2023-07-13T01:57:15;7.57;;;4.70;;
48317;SDS011;34127;47.412;9.730;2023-07-13T01:59:41;7.40;;;4.75;;
48317;SDS011;34127;47.412;9.730;2023-07-13T02:02:07;7.72;;;4.70;;
48317;SDS011;34127;47.412;9.730;2023-07-13T02:04:33;8.18;;;4.63;;
48317;SDS011;34127;47.412;9.730;2023-07-13T02:07:00;7.25;;;4.95;;
48317;SDS011;34127;47.412;9.730;2023-07-13T02:09:26;8.80;;;5.65;;
48317;SDS011;34127;47.412;9.730;2023-07-13T02:11:52;8.80;;;4.50;;
48317;SDS011;34127;47.412;9.730;2023-07-13T02:14:18;8.05;;;4.63;;
48317;SDS011;34127;47.412;9.730;2023-07-13T02:16:45;8.20;;;4.82;;
48317;SDS011;34127;47.412;9.730;2023-07-13T02:19:11;7.20;;;4.03;;
48317;SDS011;34127;47.412;9.730;2023-07-13T02:21:37;8.80;;;3.97;;
48317;SDS011;34127;47.412;9.730;2023-07-13T02:24:03;6.07;;;3.97;;
48317;SDS011;34127;47.412;9.730;2023-07-13T02:26:29;7.57;;;4.10;;
48317;SDS011;34127;47.412;9.730;2023-07-13T02:28:55;10.63;;;4.82;;
48317;SDS011;34127;47.412;9.730;2023-07-13T02:31:21;9.15;;;4.03;;
48317;SDS011;34127;47.412;9.730;2023-07-13T02:33:48;6.60;;;4.32;;
48317;SDS011;34127;47.412;9.730;2023-07-13T02:36:14;7.50;;;4.47;;
48317;SDS011;34127;47.412;9.730;2023-07-13T02:38:41;5.97;;;4.03;;
48317;SDS011;34127;47.412;9.730;2023-07-13T02:41:08;10.90;;;4.65;;
48317;SDS011;34127;47.412;9.730;2023-07-13T02:43:35;7.30;;;4.45;;
48317;SDS011;34127;47.412;9.730;2023-07-13T02:46:01;7.32;;;3.97;;
48317;SDS011;34127;47.412;9.730;2023-07-13T02:48:35;6.63;;;4.32;;
48317;SDS011;34127;47.412;9.730;2023-07-13T02:51:02;7.28;;;4.30;;
48317;SDS011;34127;47.412;9.730;2023-07-13T02:53:28;8.25;;;4.55;;
48317;SDS011;34127;47.412;9.730;2023-07-13T02:55:54;5.72;;;4.20;;
48317;SDS011;34127;47.412;9.730;2023-07-13T02:58:20;7.35;;;5.10;;
48317;SDS011;34127;47.412;9.730;2023-07-13T03:00:46;9.75;;;5.30;;
48317;SDS011;34127;47.412;9.730;2023-07-13T03:03:13;10.25;;;4.97;;
48317;SDS011;34127;47.412;9.730;2023-07-13T03:05:40;8.65;;;5.18;;
48317;SDS011;34127;47.412;9.730;2023-07-13T03:08:10;12.40;;;5.88;;
48317;SDS011;34127;47.412;9.730;2023-07-13T03:10:37;9.40;;;6.55;;
48317;SDS011;34127;47.412;9.730;2023-07-13T03:13:04;10.23;;;6.60;;
48317;SDS011;34127;47.412;9.730;2023-07-13T03:15:31;11.13;;;6.22;;
48317;SDS011;34127;47.412;9.730;2023-07-13T03:17:57;10.68;;;6.05;;
48317;SDS011;34127;47.412;9.730;2023-07-13T03:20:23;11.98;;;5.90;;
48317;SDS011;34127;47.412;9.730;2023-07-13T03:22:49;8.95;;;5.10;;
48317;SDS011;34127;47.412;9.730;2023-07-13T03:25:15;7.55;;;4.60;;
48317;SDS011;34127;47.412;9.730;2023-07-13T03:27:41;7.53;;;4.10;;
48317;SDS011;34127;47.412;9.730;2023-07-13T03:30:08;8.57;;;4.00;;
48317;SDS011;34127;47.412;9.730;2023-07-13T03:32:34;6.03;;;4.32;;
48317;SDS011;34127;47.412;9.730;2023-07-13T03:35:00;6.28;;;3.97;;
48317;SDS011;34127;47.412;9.730;2023-07-13T03:37:26;8.45;;;4.00;;
48317;SDS011;34127;47.412;9.730;2023-07-13T03:39:53;8.00;;;4.30;;
48317;SDS011;34127;47.412;9.730;2023-07-13T03:42:19;8.15;;;4.30;;
48317;SDS011;34127;47.412;9.730;2023-07-13T03:44:45;7.55;;;3.90;;
48317;SDS011;34127;47.412;9.730;2023-07-13T03:47:17;7.47;;;4.15;;
48317;SDS011;34127;47.412;9.730;2023-07-13T03:49:43;7.03;;;3.88;;
48317;SDS011;34127;47.412;9.730;2023-07-13T03:52:11;7.25;;;3.55;;
48317;SDS011;34127;47.412;9.730;2023-07-13T03:54:37;6.55;;;3.90;;
48317;SDS011;34127;47.412;9.730;2023-07-13T03:57:03;7.13;;;4.20;;
48317;SDS011;34127;47.412;9.730;2023-07-13T03:59:29;5.10;;;3.75;;
48317;SDS011;34127;47.412;9.730;2023-07-13T04:01:55;9.70;;;4.82;;
48317;SDS011;34127;47.412;9.730;2023-07-13T04:04:21;6.38;;;4.35;;
48317;SDS011;34127;47.412;9.730;2023-07-13T04:06:48;7.00;;;4.15;;
48317;SDS011;34127;47.412;9.730;2023-07-13T04:09:14;5.70;;;3.90;;
48317;SDS011;34127;47.412;9.730;2023-07-13T04:11:40;6.82;;;4.50;;
48317;SDS011;34127;47.412;9.730;2023-07-13T04:14:06;6.53;;;4.07;;
48317;SDS011;34127;47.412;9.730;2023-07-13T04:16:32;7.10;;;3.92;;
48317;SDS011;34127;47.412;9.730;2023-07-13T04:18:58;7.72;;;3.95;;
48317;SDS011;34127;47.412;9.730;2023-07-13T04:21:26;6.68;;;4.50;;
48317;SDS011;34127;47.412;9.730;2023-07-13T04:23:52;6.40;;;4.32;;
48317;SDS011;34127;47.412;9.730;2023-07-13T04:26:18;9.38;;;4.75;;
48317;SDS011;34127;47.412;9.730;2023-07-13T04:28:46;8.40;;;5.00;;
48317;SDS011;34127;47.412;9.730;2023-07-13T04:31:13;12.23;;;4.82;;
48317;SDS011;34127;47.412;9.730;2023-07-13T04:33:39;11.13;;;5.25;;
48317;SDS011;34127;47.412;9.730;2023-07-13T04:36:05;10.10;;;4.97;;
48317;SDS011;34127;47.412;9.730;2023-07-13T04:38:34;10.57;;;4.72;;
48317;SDS011;34127;47.412;9.730;2023-07-13T04:41:01;7.85;;;4.35;;
48317;SDS011;34127;47.412;9.730;2023-07-13T04:43:28;7.90;;;4.82;;
48317;SDS011;34127;47.412;9.730;2023-07-13T04:45:54;9.38;;;5.15;;
48317;SDS011;34127;47.412;9.730;2023-07-13T04:48:21;11.07;;;4.75;;
48317;SDS011;34127;47.412;9.730;2023-07-13T04:50:47;7.63;;;4.35;;
48317;SDS011;34127;47.412;9.730;2023-07-13T04:53:14;7.60;;;4.80;;
48317;SDS011;34127;47.412;9.730;2023-07-13T04:55:40;8.48;;;4.82;;
48317;SDS011;34127;47.412;9.730;2023-07-13T04:58:07;8.65;;;5.03;;
48317;SDS011;34127;47.412;9.730;2023-07-13T05:00:33;7.30;;;4.90;;
48317;SDS011;34127;47.412;9.730;2023-07-13T05:02:59;8.15;;;4.90;;
48317;SDS011;34127;47.412;9.730;2023-07-13T05:05:26;7.93;;;5.15;;
48317;SDS011;34127;47.412;9.730;2023-07-13T05:07:53;8.00;;;5.13;;
48317;SDS011;34127;47.412;9.730;2023-07-13T05:10:19;7.47;;;5.40;;
48317;SDS011;34127;47.412;9.730;2023-07-13T05:12:46;10.55;;;5.78;;
48317;SDS011;34127;47.412;9.730;2023-07-13T05:15:12;8.68;;;5.47;;
48317;SDS011;34127;47.412;9.730;2023-07-13T05:17:38;10.90;;;5.50;;
48317;SDS011;34127;47.412;9.730;2023-07-13T05:20:05;10.18;;;5.90;;
48317;SDS011;34127;47.412;9.730;2023-07-13T05:22:32;6.90;;;5.45;;
48317;SDS011;34127;47.412;9.730;2023-07-13T05:25:00;10.15;;;5.60;;
48317;SDS011;34127;47.412;9.730;2023-07-13T05:27:26;8.25;;;5.03;;
48317;SDS011;34127;47.412;9.730;2023-07-13T05:29:52;8.85;;;4.78;;
48317;SDS011;34127;47.412;9.730;2023-07-13T05:32:18;8.93;;;5.25;;
48317;SDS011;34127;47.412;9.730;2023-07-13T05:34:44;10.77;;;5.00;;
48317;SDS011;34127;47.412;9.730;2023-07-13T05:37:10;9.88;;;5.45;;
48317;SDS011;34127;47.412;9.730;2023-07-13T05:39:36;11.82;;;5.28;;
48317;SDS011;34127;47.412;9.730;2023-07-13T05:42:03;8.25;;;4.90;;
48317;SDS011;34127;47.412;9.730;2023-07-13T05:44:29;13.05;;;5.35;;
48317;SDS011;34127;47.412;9.730;2023-07-13T05:46:55;9.75;;;5.35;;
48317;SDS011;34127;47.412;9.730;2023-07-13T05:49:22;12.00;;;5.13;;
48317;SDS011;34127;47.412;9.730;2023-07-13T05:51:48;10.25;;;4.93;;
48317;SDS011;34127;47.412;9.730;2023-07-13T05:54:14;9.70;;;5.30;;
48317;SDS011;34127;47.412;9.730;2023-07-13T05:56:40;8.00;;;4.85;;
48317;SDS011;34127;47.412;9.730;2023-07-13T05:59:06;10.48;;;5.00;;
48317;SDS011;34127;47.412;9.730;2023-07-13T06:01:33;16.60;;;6.10;;
48317;SDS011;34127;47.412;9.730;2023-07-13T06:03:59;7.60;;;4.75;;
48317;SDS011;34127;47.412;9.730;2023-07-13T06:06:25;7.55;;;4.95;;
48317;SDS011;34127;47.412;9.730;2023-07-13T06:08:51;9.55;;;4.55;;
48317;SDS011;34127;47.412;9.730;2023-07-13T06:11:22;8.90;;;4.93;;
48317;SDS011;34127;47.412;9.730;2023-07-13T06:13:48;10.55;;;5.10;;
48317;SDS011;34127;47.412;9.730;2023-07-13T06:16:15;8.07;;;5.00;;
48317;SDS011;34127;47.412;9.730;2023-07-13T06:18:42;10.18;;;4.88;;
48317;SDS011;34127;47.412;9.730;2023-07-13T06:21:18;11.15;;;4.80;;
48317;SDS011;34127;47.412;9.730;2023-07-13T06:23:45;10.07;;;5.35;;
48317;SDS011;34127;47.412;9.730;2023-07-13T06:26:12;10.70;;;4.90;;
48317;SDS011;34127;47.412;9.730;2023-07-13T06:28:39;8.55;;;5.30;;
48317;SDS011;34127;47.412;9.730;2023-07-13T06:31:09;10.98;;;6.32;;
48317;SDS011;34127;47.412;9.730;2023-07-13T06:33:35;7.90;;;5.75;;
48317;SDS011;34127;47.412;9.730;2023-07-13T06:36:02;8.25;;;5.38;;
48317;SDS011;34127;47.412;9.730;2023-07-13T06:38:29;9.23;;;6.10;;
48317;SDS011;34127;47.412;9.730;2023-07-13T06:40:55;10.90;;;5.63;;
48317;SDS011;34127;47.412;9.730;2023-07-13T06:43:21;9.20;;;5.18;;
48317;SDS011;34127;47.412;9.730;2023-07-13T06:45:49;10.48;;;5.07;;
48317;SDS011;34127;47.412;9.730;2023-07-13T06:48:16;8.10;;;4.65;;
48317;SDS011;34127;47.412;9.730;2023-07-13T06:50:43;9.57;;;5.28;;
48317;SDS011;34127;47.412;9.730;2023-07-13T06:53:09;10.20;;;5.40;;
48317;SDS011;34127;47.412;9.730;2023-07-13T06:55:35;10.00;;;4.88;;
48317;SDS011;34127;47.412;9.730;2023-07-13T06:58:01;9.65;;;5.18;;
48317;SDS011;34127;47.412;9.730;2023-07-13T07:00:28;8.23;;;5.00;;
48317;SDS011;34127;47.412;9.730;2023-07-13T07:02:54;7.22;;;4.70;;
48317;SDS011;34127;47.412;9.730;2023-07-13T07:05:20;7.95;;;4.60;;
48317;SDS011;34127;47.412;9.730;2023-07-13T07:07:50;9.00;;;4.45;;
48317;SDS011;34127;47.412;9.730;2023-07-13T07:10:16;8.88;;;5.07;;
48317;SDS011;34127;47.412;9.730;2023-07-13T07:12:42;8.20;;;4.57;;
48317;SDS011;34127;47.412;9.730;2023-07-13T07:15:09;9.77;;;5.45;;
48317;SDS011;34127;47.412;9.730;2023-07-13T07:17:35;6.78;;;4.90;;
48317;SDS011;34127;47.412;9.730;2023-07-13T07:20:02;6.80;;;4.80;;
48317;SDS011;34127;47.412;9.730;2023-07-13T07:22:28;7.85;;;5.47;;
48317;SDS011;34127;47.412;9.730;2023-07-13T07:24:55;8.60;;;5.47;;
48317;SDS011;34127;47.412;9.730;2023-07-13T07:27:21;11.48;;;6.05;;
48317;SDS011;34127;47.412;9.730;2023-07-13T07:29:48;10.52;;;6.50;;
48317;SDS011;34127;47.412;9.730;2023-07-13T07:32:14;11.65;;;7.28;;
48317;SDS011;34127;47.412;9.730;2023-07-13T07:34:40;9.18;;;5.95;;
48317;SDS011;34127;47.412;9.730;2023-07-13T07:37:06;7.57;;;5.15;;
48317;SDS011;34127;47.412;9.730;2023-07-13T07:39:32;7.07;;;4.78;;
48317;SDS011;34127;47.412;9.730;2023-07-13T07:41:58;8.60;;;5.18;;
48317;SDS011;34127;47.412;9.730;2023-07-13T07:44:24;8.13;;;5.03;;
48317;SDS011;34127;47.412;9.730;2023-07-13T07:46:52;9.95;;;4.78;;
48317;SDS011;34127;47.412;9.730;2023-07-13T07:49:18;7.00;;;5.13;;
48317;SDS011;34127;47.412;9.730;2023-07-13T07:51:44;9.23;;;5.43;;
48317;SDS011;34127;47.412;9.730;2023-07-13T07:54:10;10.20;;;5.40;;
48317;SDS011;34127;47.412;9.730;2023-07-13T07:56:37;12.68;;;6.35;;
48317;SDS011;34127;47.412;9.730;2023-07-13T07:59:03;10.82;;;5.80;;
48317;SDS011;34127;47.412;9.730;2023-07-13T08:01:29;10.88;;;6.15;;
48317;SDS011;34127;47.412;9.730;2023-07-13T08:03:55;10.77;;;5.70;;
48317;SDS011;34127;47.412;9.730;2023-07-13T08:06:21;9.52;;;6.28;;
48317;SDS011;34127;47.412;9.730;2023-07-13T08:08:48;10.15;;;6.38;;
48317;SDS011;34127;47.412;9.730;2023-07-13T08:11:14;8.25;;;5.63;;
48317;SDS011;34127;47.412;9.730;2023-07-13T08:13:40;9.43;;;5.07;;
48317;SDS011;34127;47.412;9.730;2023-07-13T08:16:06;7.35;;;4.72;;
48317;SDS011;34127;47.412;9.730;2023-07-13T08:18:32;10.05;;;4.70;;
48317;SDS011;34127;47.412;9.730;2023-07-13T08:21:02;8.60;;;4.80;;
48317;SDS011;34127;47.412;9.730;2023-07-13T08:23:29;6.57;;;4.20;;
48317;SDS011;34127;47.412;9.730;2023-07-13T08:25:55;7.80;;;4.72;;
48317;SDS011;34127;47.412;9.730;2023-07-13T08:28:22;6.13;;;4.07;;
48317;SDS011;34127;47.412;9.730;2023-07-13T08:30:48;6.90;;;4.53;;
48317;SDS011;34127;47.412;9.730;2023-07-13T08:33:15;6.18;;;4.00;;
48317;SDS011;34127;47.412;9.730;2023-07-13T08:35:41;10.52;;;4.57;;
48317;SDS011;34127;47.412;9.730;2023-07-13T08:38:07;6.95;;;4.55;;
48317;SDS011;34127;47.412;9.730;2023-07-13T08:40:33;8.23;;;4.38;;
48317;SDS011;34127;47.412;9.730;2023-07-13T08:42:59;8.63;;;4.47;;
48317;SDS011;34127;47.412;9.730;2023-07-13T08:45:30;5.95;;;3.83;;
48317;SDS011;34127;47.412;9.730;2023-07-13T08:47:58;10.07;;;4.63;;
48317;SDS011;34127;47.412;9.730;2023-07-13T08:50:29;7.85;;;4.57;;
48317;SDS011;34127;47.412;9.730;2023-07-13T08:52:56;5.90;;;3.78;;
48317;SDS011;34127;47.412;9.730;2023-07-13T08:55:27;4.93;;;3.03;;
48317;SDS011;34127;47.412;9.730;2023-07-13T08:57:59;4.25;;;2.92;;
48317;SDS011;34127;47.412;9.730;2023-07-13T09:00:28;6.78;;;2.92;;
48317;SDS011;34127;47.412;9.730;2023-07-13T09:02:59;4.85;;;3.17;;
48317;SDS011;34127;47.412;9.730;2023-07-13T09:16:44;8.20;;;3.40;;
48317;SDS011;34127;47.412;9.730;2023-07-13T09:19:14;7.13;;;3.00;;
48317;SDS011;34127;47.412;9.730;2023-07-13T09:21:42;5.82;;;2.75;;
48317;SDS011;34127;47.412;9.730;2023-07-13T09:24:26;6.15;;;2.90;;
48317;SDS011;34127;47.412;9.730;2023-07-13T09:26:53;4.85;;;2.85;;
48317;SDS011;34127;47.412;9.730;2023-07-13T09:29:22;6.40;;;3.70;;
48317;SDS011;34127;47.412;9.730;2023-07-13T09:31:53;5.13;;;3.00;;
48317;SDS011;34127;47.412;9.730;2023-07-13T09:34:20;5.93;;;3.13;;
48317;SDS011;34127;47.412;9.730;2023-07-13T09:36:46;7.85;;;2.90;;
48317;SDS011;34127;47.412;9.730;2023-07-13T09:39:33;5.32;;;3.15;;
48317;SDS011;34127;47.412;9.730;2023-07-13T09:44:53;4.70;;;3.00;;
48317;SDS011;34127;47.412;9.730;2023-07-13T09:47:24;6.55;;;3.38;;
48317;SDS011;34127;47.412;9.730;2023-07-13T09:49:55;7.35;;;3.33;;
48317;SDS011;34127;47.412;9.730;2023-07-13T09:52:23;6.10;;;3.28;;
48317;SDS011;34127;47.412;9.730;2023-07-13T09:54:50;5.10;;;2.72;;
48317;SDS011;34127;47.412;9.730;2023-07-13T09:57:19;5.78;;;3.15;;
48317;SDS011;34127;47.412;9.730;2023-07-13T09:59:49;6.88;;;2.70;;
48317;SDS011;34127;47.412;9.730;2023-07-13T10:02:23;6.43;;;3.63;;
48317;SDS011;34127;47.412;9.730;2023-07-13T10:04:55;5.65;;;3.10;;
48317;SDS011;34127;47.412;9.730;2023-07-13T10:07:22;5.07;;;2.80;;
48317;SDS011;34127;47.412;9.730;2023-07-13T10:09:55;6.63;;;3.13;;
48317;SDS011;34127;47.412;9.730;2023-07-13T10:12:21;4.65;;;2.60;;
48317;SDS011;34127;47.412;9.730;2023-07-13T10:14:54;6.68;;;2.70;;
48317;SDS011;34127;47.412;9.730;2023-07-13T10:17:25;5.38;;;3.03;;
48317;SDS011;34127;47.412;9.730;2023-07-13T10:19:52;6.15;;;2.85;;
48317;SDS011;34127;47.412;9.730;2023-07-13T10:22:25;6.35;;;3.47;;
48317;SDS011;34127;47.412;9.730;2023-07-13T10:24:53;4.17;;;2.70;;
48317;SDS011;34127;47.412;9.730;2023-07-13T10:27:21;6.72;;;4.35;;
48317;SDS011;34127;47.412;9.730;2023-07-13T10:32:26;4.82;;;2.72;;
48317;SDS011;34127;47.412;9.730;2023-07-13T10:34:52;4.80;;;3.03;;
48317;SDS011;34127;47.412;9.730;2023-07-13T10:37:23;5.57;;;3.58;;
48317;SDS011;34127;47.412;9.730;2023-07-13T10:39:50;7.30;;;3.80;;
48317;SDS011;34127;47.412;9.730;2023-07-13T10:42:23;6.45;;;3.60;;
48317;SDS011;34127;47.412;9.730;2023-07-13T10:44:50;7.60;;;3.15;;
48317;SDS011;34127;47.412;9.730;2023-07-13T10:47:17;4.75;;;2.53;;
48317;SDS011;34127;47.412;9.730;2023-07-13T10:49:43;5.88;;;2.90;;
48317;SDS011;34127;47.412;9.730;2023-07-13T10:54:54;5.47;;;3.20;;
48317;SDS011;34127;47.412;9.730;2023-07-13T10:57:22;6.57;;;3.03;;
48317;SDS011;34127;47.412;9.730;2023-07-13T10:59:49;6.57;;;3.60;;
48317;SDS011;34127;47.412;9.730;2023-07-13T11:02:34;5.57;;;3.00;;
48317;SDS011;34127;47.412;9.730;2023-07-13T11:05:12;7.05;;;3.03;;
48317;SDS011;34127;47.412;9.730;2023-07-13T11:07:51;5.50;;;3.20;;
48317;SDS011;34127;47.412;9.730;2023-07-13T11:10:45;6.15;;;2.83;;
48317;SDS011;34127;47.412;9.730;2023-07-13T11:13:03;8.18;;;3.03;;
48317;SDS011;34127;47.412;9.730;2023-07-13T11:15:31;4.80;;;2.60;;
48317;SDS011;34127;47.412;9.730;2023-07-13T11:18:01;6.50;;;3.05;;
48317;SDS011;34127;47.412;9.730;2023-07-13T11:20:46;4.25;;;2.40;;
48317;SDS011;34127;47.412;9.730;2023-07-13T11:25:43;4.03;;;2.55;;
48317;SDS011;34127;47.412;9.730;2023-07-13T11:35:31;4.97;;;2.70;;
48317;SDS011;34127;47.412;9.730;2023-07-13T11:38:00;5.90;;;2.90;;
48317;SDS011;34127;47.412;9.730;2023-07-13T11:40:26;3.95;;;2.60;;
48317;SDS011;34127;47.412;9.730;2023-07-13T11:43:01;6.03;;;2.80;;
48317;SDS011;34127;47.412;9.730;2023-07-13T11:45:28;4.70;;;2.53;;
48317;SDS011;34127;47.412;9.730;2023-07-13T11:47:54;4.65;;;2.95;;
48317;SDS011;34127;47.412;9.730;2023-07-13T11:50:25;4.47;;;2.70;;
48317;SDS011;34127;47.412;9.730;2023-07-13T11:52:52;5.22;;;2.72;;
48317;SDS011;34127;47.412;9.730;2023-07-13T11:55:21;4.93;;;2.63;;
48317;SDS011;34127;47.412;9.730;2023-07-13T11:57:59;5.75;;;3.10;;
48317;SDS011;34127;47.412;9.730;2023-07-13T12:00:30;5.18;;;2.80;;
48317;SDS011;34127;47.412;9.730;2023-07-13T12:02:59;4.57;;;2.88;;
48317;SDS011;34127;47.412;9.730;2023-07-13T12:05:26;5.45;;;2.92;;
48317;SDS011;34127;47.412;9.730;2023-07-13T12:07:52;5.10;;;2.97;;
48317;SDS011;34127;47.412;9.730;2023-07-13T12:10:29;5.90;;;3.10;;
48317;SDS011;34127;47.412;9.730;2023-07-13T12:13:00;4.90;;;2.60;;
48317;SDS011;34127;47.412;9.730;2023-07-13T12:15:35;7.00;;;2.70;;
48317;SDS011;34127;47.412;9.730;2023-07-13T12:18:03;4.03;;;2.60;;
48317;SDS011;34127;47.412;9.730;2023-07-13T12:20:37;4.70;;;2.80;;
48317;SDS011;34127;47.412;9.730;2023-07-13T12:23:21;5.30;;;3.20;;
48317;SDS011;34127;47.412;9.730;2023-07-13T12:25:50;5.75;;;3.05;;
48317;SDS011;34127;47.412;9.730;2023-07-13T12:28:19;5.03;;;2.78;;
48317;SDS011;34127;47.412;9.730;2023-07-13T12:30:47;4.80;;;2.90;;
48317;SDS011;34127;47.412;9.730;2023-07-13T12:33:14;4.38;;;2.60;;
48317;SDS011;34127;47.412;9.730;2023-07-13T12:35:47;4.72;;;2.83;;
48317;SDS011;34127;47.412;9.730;2023-07-13T12:38:15;3.85;;;2.50;;
48317;SDS011;34127;47.412;9.730;2023-07-13T12:40:41;5.35;;;2.75;;
48317;SDS011;34127;47.412;9.730;2023-07-13T12:43:11;6.22;;;2.72;;
48317;SDS011;34127;47.412;9.730;2023-07-13T12:45:38;4.22;;;2.60;;
48317;SDS011;34127;47.412;9.730;2023-07-13T12:48:06;5.95;;;2.40;;
48317;SDS011;34127;47.412;9.730;2023-07-13T12:50:37;5.30;;;2.55;;
48317;SDS011;34127;47.412;9.730;2023-07-13T12:53:15;4.72;;;2.70;;
48317;SDS011;34127;47.412;9.730;2023-07-13T12:55:42;5.05;;;2.85;;
48317;SDS011;34127;47.412;9.730;2023-07-13T12:58:16;5.00;;;2.58;;
48317;SDS011;34127;47.412;9.730;2023-07-13T13:00:47;4.90;;;2.75;;
48317;SDS011;34127;47.412;9.730;2023-07-13T13:08:25;4.53;;;2.55;;
48317;SDS011;34127;47.412;9.730;2023-07-13T13:10:51;3.85;;;2.15;;
48317;SDS011;34127;47.412;9.730;2023-07-13T13:13:17;5.53;;;2.53;;
48317;SDS011;34127;47.412;9.730;2023-07-13T13:15:43;4.03;;;2.55;;
48317;SDS011;34127;47.412;9.730;2023-07-13T13:18:15;3.25;;;2.20;;
48317;SDS011;34127;47.412;9.730;2023-07-13T13:20:42;4.05;;;2.53;;
48317;SDS011;34127;47.412;9.730;2023-07-13T13:23:11;5.68;;;2.63;;
48317;SDS011;34127;47.412;9.730;2023-07-13T13:25:39;5.18;;;3.60;;
48317;SDS011;34127;47.412;9.730;2023-07-13T13:28:08;5.15;;;2.83;;
48317;SDS011;34127;47.412;9.730;2023-07-13T13:30:37;4.55;;;2.55;;
48317;SDS011;34127;47.412;9.730;2023-07-13T13:33:04;5.18;;;2.50;;
48317;SDS011;34127;47.412;9.730;2023-07-13T13:35:32;4.30;;;2.80;;
48317;SDS011;34127;47.412;9.730;2023-07-13T13:37:58;5.32;;;2.70;;
48317;SDS011;34127;47.412;9.730;2023-07-13T13:40:24;5.95;;;2.70;;
48317;SDS011;34127;47.412;9.730;2023-07-13T13:42:52;5.78;;;2.63;;
48317;SDS011;34127;47.412;9.730;2023-07-13T13:45:20;4.43;;;2.55;;
48317;SDS011;34127;47.412;9.730;2023-07-13T13:47:46;4.63;;;2.28;;
48317;SDS011;34127;47.412;9.730;2023-07-13T13:50:17;5.35;;;2.55;;
48317;SDS011;34127;47.412;9.730;2023-07-13T13:52:45;4.10;;;2.45;;
48317;SDS011;34127;47.412;9.730;2023-07-13T13:55:12;4.15;;;2.30;;
48317;SDS011;34127;47.412;9.730;2023-07-13T13:57:38;3.63;;;2.45;;
48317;SDS011;34127;47.412;9.730;2023-07-13T14:00:05;4.20;;;2.58;;
48317;SDS011;34127;47.412;9.730;2023-07-13T14:02:31;4.53;;;2.33;;
48317;SDS011;34127;47.412;9.730;2023-07-13T14:04:58;4.90;;;2.50;;
48317;SDS011;34127;47.412;9.730;2023-07-13T14:07:25;3.97;;;2.42;;
48317;SDS011;34127;47.412;9.730;2023-07-13T14:10:00;4.22;;;2.30;;
48317;SDS011;34127;47.412;9.730;2023-07-13T14:12:27;4.90;;;2.63;;
48317;SDS011;34127;47.412;9.730;2023-07-13T14:14:55;4.28;;;2.45;;
48317;SDS011;34127;47.412;9.730;2023-07-13T14:17:24;4.50;;;2.50;;
48317;SDS011;34127;47.412;9.730;2023-07-13T14:19:51;4.10;;;2.33;;
48317;SDS011;34127;47.412;9.730;2023-07-13T14:22:22;4.00;;;2.30;;
48317;SDS011;34127;47.412;9.730;2023-07-13T14:24:49;3.70;;;2.50;;
48317;SDS011;34127;47.412;9.730;2023-07-13T14:27:16;4.38;;;2.42;;
48317;SDS011;34127;47.412;9.730;2023-07-13T14:29:42;4.22;;;2.30;;
48317;SDS011;34127;47.412;9.730;2023-07-13T14:32:10;4.88;;;2.72;;
48317;SDS011;34127;47.412;9.730;2023-07-13T14:34:36;4.05;;;2.28;;
48317;SDS011;34127;47.412;9.730;2023-07-13T14:37:02;3.97;;;2.20;;
48317;SDS011;34127;47.412;9.730;2023-07-13T14:39:29;4.97;;;2.60;;
48317;SDS011;34127;47.412;9.730;2023-07-13T14:41:56;3.03;;;2.22;;
48317;SDS011;34127;47.412;9.730;2023-07-13T14:44:27;5.68;;;2.50;;
48317;SDS011;34127;47.412;9.730;2023-07-13T14:46:54;4.05;;;2.40;;
48317;SDS011;34127;47.412;9.730;2023-07-13T14:49:23;3.08;;;2.08;;
48317;SDS011;34127;47.412;9.730;2023-07-13T14:51:50;3.75;;;2.47;;
48317;SDS011;34127;47.412;9.730;2023-07-13T14:54:17;4.57;;;2.80;;
48317;SDS011;34127;47.412;9.730;2023-07-13T14:56:43;5.07;;;2.60;;
48317;SDS011;34127;47.412;9.730;2023-07-13T14:59:09;4.05;;;2.50;;
48317;SDS011;34127;47.412;9.730;2023-07-13T15:01:37;6.05;;;2.30;;
48317;SDS011;34127;47.412;9.730;2023-07-13T15:04:05;4.28;;;2.10;;
48317;SDS011;34127;47.412;9.730;2023-07-13T15:06:39;3.60;;;2.20;;
48317;SDS011;34127;47.412;9.730;2023-07-13T15:09:18;4.20;;;2.33;;
48317;SDS011;34127;47.412;9.730;2023-07-13T15:11:44;3.72;;;2.10;;
48317;SDS011;34127;47.412;9.730;2023-07-13T15:14:10;3.35;;;2.08;;
48317;SDS011;34127;47.412;9.730;2023-07-13T15:16:36;4.55;;;1.92;;
48317;SDS011;34127;47.412;9.730;2023-07-13T15:19:03;3.80;;;2.05;;
48317;SDS011;34127;47.412;9.730;2023-07-13T15:21:29;3.67;;;2.33;;
48317;SDS011;34127;47.412;9.730;2023-07-13T15:23:59;4.65;;;2.25;;
48317;SDS011;34127;47.412;9.730;2023-07-13T15:26:27;3.83;;;2.10;;
48317;SDS011;34127;47.412;9.730;2023-07-13T15:28:53;5.38;;;2.42;;